Portada
METAR-TAF:

METAR-TAF

Aeroports :

St. Charles County Airport (Smart Field)

St. Charles, Missouri, Estats Units d'Amèrica

latitud: 38-55-50N, longitud: 090-25-57W, altitud: 133 m

Observació

L'informe es va fer fa 39 minuts, a les 03:54 UTC
Vent 6 kt del Oest/Nord-Oest
Temperatura 12°C
Humitat 50%
Pressió 1019 hPa
Visibilitat: 16.1 km
Cel clar

METAR: KSET 300354Z AUTO 29006KT 10SM CLR 12/02 A3010 RMK AO2 SLP192 T01170017

Hora: 23:33 (04:33 UTC)


TAF: manca

Observacions i pronòstics meteorològics de més de 4000 aeroports (METAR i TAF).

Les estacions disponibles són els punts grocs i vermells al mapa.

Posi el ratolí al punt desitjat per veure el nom de l'estació.

Feu clic per veure les observacions i els pronòstics meteorològics.

Per canviar el mapa: feu clic els botons verds amb una creu de color negre per apropar; al botó verd amb un guió per allunyar la imatge; o en les fletxes verdes per a mapes adjacents.


METAR-TAF: